Time;durP1;ratioP1;P1;durP2;ratioP2;P2;SDS_P1;SDS_P2;PMS_P1;PMS_P2;Temp;Humidity;BMP_temperature;BMP_pressure;BME280_temperature;BME280_humidity;BME280_pressure;Samples;Min_cycle;Max_cycle;Signal;HPM_P1;HPM_P2
2023/06/04 00:00:25;;;;;;;4.25;0.00;;;13.50;99.90;;;;;;5053860;28;20009;-72
2023/06/04 00:02:51;;;;;;;4.07;0.20;;;13.50;99.90;;;;;;5036004;28;20450;-72
2023/06/04 00:05:17;;;;;;;0.57;0.30;;;13.50;99.90;;;;;;5053780;28;20103;-72
2023/06/04 00:07:42;;;;;;;0.47;0.00;;;13.50;99.90;;;;;;5053898;28;20029;-72
2023/06/04 00:10:08;;;;;;;0.40;0.10;;;13.50;99.90;;;;;;5053514;28;20392;-72
2023/06/04 00:12:34;;;;;;;1.95;0.20;;;13.40;99.90;;;;;;5053562;28;20514;-72
2023/06/04 00:15:00;;;;;;;0.75;0.00;;;13.40;99.90;;;;;;5035603;28;20115;-73
2023/06/04 00:17:25;;;;;;;0.65;0.00;;;13.40;99.90;;;;;;5053645;28;20039;-73
2023/06/04 00:19:51;;;;;;;2.20;0.00;;;13.30;99.90;;;;;;5035717;28;20017;-73
2023/06/04 00:22:17;;;;;;;0.10;0.00;;;13.30;99.90;;;;;;5053544;28;20484;-73
2023/06/04 00:24:43;;;;;;;0.77;0.00;;;13.30;99.90;;;;;;5053717;28;20139;-72
2023/06/04 00:27:09;;;;;;;0.40;0.00;;;13.30;99.90;;;;;;5053398;28;20519;-72
2023/06/04 00:29:35;;;;;;;3.45;0.00;;;13.30;99.90;;;;;;5053170;28;20037;-72
2023/06/04 00:32:01;;;;;;;1.70;0.00;;;13.30;99.90;;;;;;5053583;28;20047;-72
2023/06/04 00:34:26;;;;;;;0.20;0.00;;;13.20;99.90;;;;;;5053877;28;20452;-72
2023/06/04 00:36:52;;;;;;;2.05;0.00;;;13.20;99.90;;;;;;5053318;28;20021;-73
2023/06/04 00:39:17;;;;;;;4.75;0.00;;;13.10;99.90;;;;;;5053106;28;20078;-73
2023/06/04 00:41:43;;;;;;;0.75;0.00;;;13.10;99.90;;;;;;5035403;28;20025;-73
2023/06/04 00:44:08;;;;;;;0.43;0.00;;;13.00;99.90;;;;;;5053266;28;20510;-73
2023/06/04 00:46:35;;;;;;;3.00;0.00;;;13.00;99.90;;;;;;5053126;28;20025;-73
2023/06/04 00:49:01;;;;;;;1.58;0.00;;;13.00;99.90;;;;;;5053071;28;20032;-73
2023/06/04 00:51:30;;;;;;;1.10;0.00;;;13.00;99.90;;;;;;5035256;28;20047;-73
2023/06/04 00:53:57;;;;;;;0.55;0.22;;;12.90;99.90;;;;;;5053147;28;20025;-72
2023/06/04 00:56:22;;;;;;;1.02;0.00;;;12.90;99.90;;;;;;5053070;28;20052;-72
2023/06/04 00:58:48;;;;;;;1.42;0.00;;;12.80;99.90;;;;;;5052961;28;20017;-72
2023/06/04 01:01:37;;;;;;;1.85;0.10;;;12.80;99.90;;;;;;5053058;28;20032;-72
2023/06/04 01:04:07;;;;;;;0.63;0.10;;;12.80;99.90;;;;;;5053935;28;20025;-73
2023/06/04 01:06:43;;;;;;;0.57;0.00;;;12.80;99.90;;;;;;5053075;28;20029;-72
2023/06/04 01:09:10;;;;;;;0.80;0.10;;;12.70;99.90;;;;;;5053002;28;20554;-72
2023/06/04 01:11:38;;;;;;;3.92;0.13;;;12.70;99.90;;;;;;5052920;28;20028;-72
2023/06/04 01:14:08;;;;;;;1.70;0.07;;;12.70;99.90;;;;;;5052885;28;20036;-72
2023/06/04 01:16:48;;;;;;;0.20;0.00;;;12.70;99.90;;;;;;5052934;28;20025;-72
2023/06/04 01:19:51;;;;;;;1.58;0.63;;;12.60;99.90;;;;;;5052930;28;20407;-72
2023/06/04 01:22:31;;;;;;;1.42;0.00;;;12.60;99.90;;;;;;5053046;28;20079;-72
2023/06/04 01:25:02;;;;;;;1.05;0.30;;;12.50;99.90;;;;;;5038693;28;20021;-72
2023/06/04 01:27:29;;;;;;;0.93;0.22;;;12.50;99.90;;;;;;5056874;28;20029;-72
2023/06/04 01:29:56;;;;;;;0.75;0.00;;;12.50;99.90;;;;;;5056697;28;20423;-73
2023/06/04 01:32:23;;;;;;;0.98;0.00;;;12.40;99.90;;;;;;5038897;28;20107;-72
2023/06/04 01:34:49;;;;;;;1.85;0.43;;;12.30;99.90;;;;;;5056618;28;20048;-73
2023/06/04 01:37:16;;;;;;;0.17;0.00;;;12.30;99.90;;;;;;5056620;28;20013;-73
2023/06/04 01:39:41;;;;;;;0.77;0.45;;;12.30;99.90;;;;;;5056508;28;20021;-72
2023/06/04 01:42:08;;;;;;;0.68;0.08;;;12.30;99.90;;;;;;5056620;28;20025;-73
2023/06/04 01:44:33;;;;;;;0.30;0.00;;;12.20;99.90;;;;;;5038647;28;20078;-73
2023/06/04 01:46:59;;;;;;;0.70;0.00;;;12.20;99.90;;;;;;5056661;28;20021;-73
2023/06/04 01:49:25;;;;;;;1.30;0.00;;;12.10;99.90;;;;;;5056419;28;20025;-72
2023/06/04 01:51:50;;;;;;;1.27;0.00;;;12.10;99.90;;;;;;5056492;28;20088;-72
2023/06/04 01:54:16;;;;;;;1.38;0.20;;;12.70;99.90;;;;;;5056640;28;20025;-72
2023/06/04 01:56:41;;;;;;;1.95;0.00;;;12.00;99.90;;;;;;5056851;28;20021;-73
2023/06/04 01:59:07;;;;;;;0.85;0.10;;;11.90;99.90;;;;;;5056294;28;20025;-72
2023/06/04 02:01:34;;;;;;;0.05;0.00;;;11.90;99.90;;;;;;5056870;28;20025;-73
2023/06/04 02:03:59;;;;;;;1.77;0.10;;;11.80;99.90;;;;;;5056193;28;20024;-73
2023/06/04 02:06:31;;;;;;;0.80;0.00;;;11.80;99.90;;;;;;5056701;28;20033;-73
2023/06/04 02:08:56;;;;;;;0.65;0.00;;;11.70;99.90;;;;;;5038213;28;20024;-72
2023/06/04 02:11:22;;;;;;;0.22;0.00;;;11.60;99.90;;;;;;5055991;28;20096;-73
2023/06/04 02:13:47;;;;;;;0.45;0.10;;;11.50;99.90;;;;;;5055931;28;20027;-72
2023/06/04 02:16:13;;;;;;;0.63;0.00;;;11.50;99.90;;;;;;5055944;28;20025;-73
2023/06/04 02:18:39;;;;;;;0.38;0.00;;;11.50;99.90;;;;;;5055965;28;20469;-72
2023/06/04 02:21:05;;;;;;;0.32;0.00;;;11.40;99.90;;;;;;5055959;28;20025;-72
2023/06/04 02:23:30;;;;;;;0.10;0.00;;;11.40;99.90;;;;;;5056503;28;20044;-73
2023/06/04 02:25:56;;;;;;;2.58;0.00;;;11.30;99.90;;;;;;5055921;28;20021;-72
2023/06/04 02:28:21;;;;;;;0.85;0.00;;;11.20;99.90;;;;;;5055695;28;20472;-72
2023/06/04 02:30:47;;;;;;;0.55;0.00;;;11.20;99.90;;;;;;5037971;28;20540;-72
2023/06/04 02:33:14;;;;;;;2.00;0.00;;;11.10;99.90;;;;;;5055666;28;20025;-72
2023/06/04 02:35:40;;;;;;;1.75;0.00;;;11.10;99.90;;;;;;5054220;28;20028;-72
2023/06/04 02:38:06;;;;;;;2.28;0.65;;;11.00;99.90;;;;;;5055655;28;20025;-72
2023/06/04 02:40:32;;;;;;;1.75;0.08;;;10.90;99.90;;;;;;5055719;28;20017;-72
2023/06/04 02:42:58;;;;;;;0.22;0.00;;;10.80;99.90;;;;;;5055525;28;20025;-72
2023/06/04 02:45:25;;;;;;;0.20;0.08;;;10.80;99.90;;;;;;5055532;28;20025;-72
2023/06/04 02:47:50;;;;;;;0.55;0.00;;;10.80;99.90;;;;;;5055538;28;20029;-72
2023/06/04 02:50:16;;;;;;;3.40;0.00;;;10.80;99.90;;;;;;5055812;28;20029;-73
2023/06/04 02:52:42;;;;;;;0.85;0.20;;;10.80;99.90;;;;;;5037503;28;20079;-72
2023/06/04 02:55:08;;;;;;;3.20;0.30;;;10.70;99.90;;;;;;5055173;28;20032;-72
2023/06/04 02:57:35;;;;;;;1.27;0.00;;;10.60;99.90;;;;;;5055231;28;20029;-72
2023/06/04 03:00:10;;;;;;;0.43;0.00;;;10.60;99.90;;;;;;5055155;28;20043;-72
2023/06/04 03:02:36;;;;;;;1.38;0.00;;;10.50;99.90;;;;;;5055262;28;20108;-72
2023/06/04 03:05:02;;;;;;;1.27;0.00;;;10.50;99.90;;;;;;5055178;28;20519;-72
2023/06/04 03:07:27;;;;;;;0.25;0.00;;;10.40;99.90;;;;;;5054981;28;20021;-71
2023/06/04 03:09:53;;;;;;;0.45;0.00;;;10.30;99.90;;;;;;5037027;28;20534;-71
2023/06/04 03:12:19;;;;;;;2.95;0.20;;;10.30;99.90;;;;;;5055187;28;20432;-73
2023/06/04 03:14:44;;;;;;;1.02;0.35;;;10.20;99.90;;;;;;5054881;28;20075;-72
2023/06/04 03:17:12;;;;;;;0.98;0.00;;;10.20;99.90;;;;;;5037101;28;20048;-73
2023/06/04 03:19:40;;;;;;;0.88;0.20;;;10.10;99.90;;;;;;5055228;28;20152;-73
2023/06/04 03:22:07;;;;;;;0.00;0.00;;;10.10;99.90;;;;;;5054909;28;20028;-72
2023/06/04 03:24:35;;;;;;;1.20;0.30;;;10.00;99.90;;;;;;5037424;28;20369;-72
2023/06/04 03:27:02;;;;;;;0.40;0.08;;;9.90;99.90;;;;;;5054819;28;20491;-72
2023/06/04 03:29:28;;;;;;;3.00;0.47;;;10.00;99.90;;;;;;5054734;28;20149;-72
2023/06/04 03:31:53;;;;;;;0.82;0.00;;;9.90;99.90;;;;;;5055292;28;20484;-73
2023/06/04 03:34:19;;;;;;;0.28;0.00;;;9.90;99.90;;;;;;5054629;28;20033;-72
2023/06/04 03:36:44;;;;;;;0.35;0.00;;;9.90;99.90;;;;;;5054541;28;20392;-72
2023/06/04 03:39:10;;;;;;;2.22;0.43;;;9.90;99.90;;;;;;5054599;28;20495;-72
2023/06/04 03:41:36;;;;;;;1.58;0.08;;;10.00;99.90;;;;;;5054462;28;20542;-74
2023/06/04 03:44:01;;;;;;;2.63;0.22;;;9.90;99.90;;;;;;5054562;28;20396;-74
2023/06/04 03:46:31;;;;;;;3.72;0.00;;;9.90;99.90;;;;;;5036205;28;20039;-72
2023/06/04 03:48:57;;;;;;;3.58;0.00;;;9.90;99.90;;;;;;5054629;28;20046;-72
2023/06/04 03:51:22;;;;;;;1.17;0.00;;;9.90;99.90;;;;;;5054304;28;20037;-73
2023/06/04 03:53:48;;;;;;;0.75;0.00;;;9.90;99.90;;;;;;5054624;28;20381;-73
2023/06/04 03:56:14;;;;;;;3.70;0.10;;;9.90;99.90;;;;;;5054287;28;20435;-73
2023/06/04 03:58:39;;;;;;;0.55;0.00;;;10.10;99.90;;;;;;5036623;28;20074;-73
2023/06/04 04:01:06;;;;;;;1.50;0.20;;;10.00;99.90;;;;;;5054827;28;20025;-73
2023/06/04 04:03:34;;;;;;;0.40;0.00;;;10.20;99.90;;;;;;5054088;28;20426;-73
2023/06/04 04:06:00;;;;;;;2.57;0.77;;;10.20;99.90;;;;;;5036344;28;20028;-72
2023/06/04 04:08:30;;;;;;;1.25;0.30;;;10.30;99.90;;;;;;5036365;28;20264;-72
2023/06/04 04:10:55;;;;;;;0.68;0.00;;;10.30;99.90;;;;;;5053887;28;20082;-72
2023/06/04 04:13:21;;;;;;;3.35;0.45;;;10.40;99.90;;;;;;5054062;28;20473;-72
2023/06/04 04:15:46;;;;;;;1.05;0.00;;;10.40;99.90;;;;;;5053706;28;20031;-73
2023/06/04 04:18:13;;;;;;;3.22;0.00;;;10.50;99.90;;;;;;5053912;28;20506;-73
2023/06/04 04:20:38;;;;;;;1.75;0.00;;;10.60;99.90;;;;;;5053820;28;20100;-72
2023/06/04 04:23:04;;;;;;;2.72;0.55;;;10.60;99.90;;;;;;5054253;28;20097;-72
2023/06/04 04:25:32;;;;;;;1.55;0.10;;;10.70;99.90;;;;;;5053997;28;20033;-72
2023/06/04 04:28:00;;;;;;;0.70;0.10;;;10.80;99.90;;;;;;5053490;28;20021;-73
2023/06/04 04:30:25;;;;;;;3.50;0.37;;;10.90;99.90;;;;;;5035429;28;20024;-71
2023/06/04 04:32:51;;;;;;;2.00;0.03;;;10.90;99.90;;;;;;5053528;28;20021;-71
2023/06/04 04:35:18;;;;;;;3.00;0.20;;;11.00;99.90;;;;;;5053442;28;20075;-71
2023/06/04 04:37:44;;;;;;;1.23;0.15;;;11.10;99.90;;;;;;5035519;28;20071;-71
2023/06/04 04:40:11;;;;;;;4.20;0.20;;;11.20;99.90;;;;;;5053169;28;20028;-71
2023/06/04 04:42:37;;;;;;;2.17;0.22;;;11.30;99.90;;;;;;5035386;28;20017;-71
2023/06/04 04:45:04;;;;;;;1.35;0.03;;;11.40;99.90;;;;;;5053353;28;20119;-71
2023/06/04 04:47:29;;;;;;;1.60;0.10;;;11.50;99.90;;;;;;5035416;28;20104;-71
2023/06/04 04:49:55;;;;;;;1.38;0.10;;;11.60;99.90;;;;;;5035333;28;20170;-71
2023/06/04 04:52:20;;;;;;;1.85;0.00;;;11.70;99.90;;;;;;5035328;28;20033;-71
2023/06/04 04:54:46;;;;;;;3.85;0.32;;;11.80;99.90;;;;;;5053066;28;20025;-72
2023/06/04 04:57:11;;;;;;;3.70;0.22;;;11.80;99.90;;;;;;5052949;28;20031;-71
2023/06/04 04:59:37;;;;;;;3.03;0.00;;;11.90;99.90;;;;;;5052422;28;20025;-72
2023/06/04 05:02:03;;;;;;;1.90;0.03;;;12.00;99.90;;;;;;5053382;28;20427;-71
2023/06/04 05:04:28;;;;;;;3.90;0.30;;;12.10;99.90;;;;;;5053258;28;20080;-72
2023/06/04 05:06:54;;;;;;;4.80;0.15;;;12.20;99.90;;;;;;5053050;28;20488;-71
2023/06/04 05:09:20;;;;;;;1.65;0.20;;;12.20;99.90;;;;;;5053233;28;20480;-71
2023/06/04 05:11:45;;;;;;;4.20;0.20;;;12.30;99.90;;;;;;5052960;28;20021;-71
2023/06/04 05:14:11;;;;;;;1.75;0.35;;;12.40;99.90;;;;;;5052938;28;20029;-72
2023/06/04 05:16:37;;;;;;;1.48;0.40;;;12.40;99.90;;;;;;5052963;28;20092;-71
2023/06/04 05:19:03;;;;;;;1.50;0.10;;;12.60;99.90;;;;;;5052797;28;20021;-72
2023/06/04 05:21:29;;;;;;;2.85;0.08;;;12.70;99.90;;;;;;5053254;28;20021;-71
2023/06/04 05:23:56;;;;;;;2.42;0.20;;;12.70;99.90;;;;;;5052933;28;20025;-71
2023/06/04 05:26:23;;;;;;;2.17;0.10;;;12.80;99.90;;;;;;5052969;28;20025;-71
2023/06/04 05:28:49;;;;;;;3.60;0.47;;;12.90;99.90;;;;;;5052810;28;20095;-71
2023/06/04 05:31:15;;;;;;;2.58;0.03;;;13.10;99.90;;;;;;5052748;28;20041;-71
2023/06/04 05:33:41;;;;;;;8.23;0.52;;;13.10;99.90;;;;;;5052675;28;20025;-71
2023/06/04 05:36:07;;;;;;;3.88;0.55;;;13.10;99.90;;;;;;5035036;28;20374;-71
2023/06/04 05:38:32;;;;;;;5.20;0.38;;;13.30;99.90;;;;;;5052624;28;20024;-71
2023/06/04 05:40:58;;;;;;;2.35;0.30;;;13.30;99.90;;;;;;5052641;28;20549;-71
2023/06/04 05:43:24;;;;;;;1.33;0.10;;;13.40;99.90;;;;;;5053136;28;20104;-71
2023/06/04 05:45:51;;;;;;;0.50;0.10;;;13.50;99.90;;;;;;5052895;28;20025;-71
2023/06/04 05:48:16;;;;;;;3.92;0.50;;;13.70;99.90;;;;;;5052751;28;20488;-71
2023/06/04 05:50:42;;;;;;;1.73;0.10;;;13.70;99.90;;;;;;5034724;28;20055;-71
2023/06/04 05:53:08;;;;;;;2.83;0.00;;;13.80;99.90;;;;;;5034828;28;20036;-71
2023/06/04 05:55:33;;;;;;;1.90;0.30;;;13.90;99.90;;;;;;5052515;28;20033;-71
2023/06/04 05:57:59;;;;;;;1.50;0.30;;;14.00;99.90;;;;;;5052476;28;20075;-71
2023/06/04 06:00:24;;;;;;;8.30;0.20;;;14.10;99.90;;;;;;5052455;28;20053;-71
2023/06/04 06:02:52;;;;;;;1.50;0.57;;;14.20;99.90;;;;;;5053074;28;20028;-71
2023/06/04 06:05:18;;;;;;;3.53;0.00;;;14.20;99.90;;;;;;5052625;28;20025;-71
2023/06/04 06:07:45;;;;;;;1.75;0.20;;;14.30;99.90;;;;;;5052530;28;20025;-71
2023/06/04 06:10:11;;;;;;;4.43;0.20;;;14.40;99.90;;;;;;5036662;28;20488;-72
2023/06/04 06:12:37;;;;;;;2.03;0.00;;;14.50;99.90;;;;;;5056166;28;20025;-72
2023/06/04 06:15:03;;;;;;;1.48;0.15;;;14.60;99.90;;;;;;5055938;28;20107;-72
2023/06/04 06:17:29;;;;;;;2.83;0.10;;;14.60;99.90;;;;;;5038051;28;20104;-72
2023/06/04 06:19:55;;;;;;;0.80;0.10;;;14.70;99.90;;;;;;5055948;28;20086;-72
2023/06/04 06:22:21;;;;;;;0.90;0.00;;;14.80;99.90;;;;;;5056010;28;20435;-72
2023/06/04 06:24:50;;;;;;;1.05;0.15;;;14.90;99.90;;;;;;5055967;28;20082;-72
2023/06/04 06:27:16;;;;;;;2.08;0.00;;;15.00;99.90;;;;;;5055815;28;20028;-71
2023/06/04 06:29:42;;;;;;;1.00;0.10;;;15.20;99.90;;;;;;5037650;28;20374;-71
2023/06/04 06:32:08;;;;;;;2.92;0.00;;;15.20;99.90;;;;;;5055766;28;20389;-71
2023/06/04 06:34:34;;;;;;;1.55;0.28;;;15.30;99.90;;;;;;5056147;28;20422;-71
2023/06/04 06:37:00;;;;;;;3.90;0.00;;;15.40;99.90;;;;;;5055608;28;20013;-71
2023/06/04 06:39:25;;;;;;;5.22;0.20;;;15.50;99.90;;;;;;5055362;28;20056;-71
2023/06/04 06:41:51;;;;;;;2.05;0.25;;;15.50;99.90;;;;;;5055534;28;20036;-71
2023/06/04 06:44:17;;;;;;;1.25;0.05;;;15.70;99.90;;;;;;5055456;28;20036;-71
2023/06/04 06:46:42;;;;;;;2.83;0.17;;;15.70;99.90;;;;;;5055311;28;20025;-71
2023/06/04 06:49:08;;;;;;;2.05;0.20;;;15.80;99.90;;;;;;5055259;28;20025;-71
2023/06/04 06:51:34;;;;;;;2.33;0.00;;;15.90;99.90;;;;;;5037493;28;20159;-71
2023/06/04 06:53:59;;;;;;;2.28;0.20;;;16.00;99.90;;;;;;5055222;28;20032;-71
2023/06/04 06:56:26;;;;;;;2.85;0.00;;;16.10;99.90;;;;;;5055261;28;20092;-71
2023/06/04 06:58:51;;;;;;;2.03;0.00;;;16.30;99.90;;;;;;5054991;28;20472;-71
2023/06/04 07:01:17;;;;;;;3.63;0.35;;;16.30;99.90;;;;;;5055306;28;20029;-71
2023/06/04 07:03:43;;;;;;;1.65;0.20;;;16.40;99.90;;;;;;5055343;28;20465;-72
2023/06/04 07:06:09;;;;;;;0.28;0.17;;;16.60;99.90;;;;;;5055774;28;20372;-72
2023/06/04 07:08:35;;;;;;;0.60;0.05;;;16.60;99.90;;;;;;5054956;28;20025;-74
2023/06/04 07:11:02;;;;;;;0.55;0.00;;;16.70;99.90;;;;;;5037217;28;20025;-73
2023/06/04 07:13:28;;;;;;;2.78;0.30;;;16.80;99.90;;;;;;5037058;28;20029;-74
2023/06/04 07:15:54;;;;;;;0.13;0.00;;;16.90;99.90;;;;;;5054633;28;20070;-74
2023/06/04 07:18:19;;;;;;;1.55;0.00;;;17.10;99.90;;;;;;5037217;28;20063;-74
2023/06/04 07:20:45;;;;;;;3.63;0.03;;;17.10;99.90;;;;;;5054181;28;20052;-74
2023/06/04 07:23:11;;;;;;;5.78;0.25;;;17.30;99.90;;;;;;5054785;28;20013;-73
2023/06/04 07:25:36;;;;;;;0.80;0.00;;;17.60;99.90;;;;;;5055091;28;20369;-74
2023/06/04 07:28:03;;;;;;;0.70;0.00;;;17.50;99.90;;;;;;5054935;28;20032;-74
2023/06/04 07:30:31;;;;;;;1.75;0.00;;;17.70;99.50;;;;;;5054400;28;20544;-74
2023/06/04 07:32:57;;;;;;;0.57;0.10;;;17.70;98.70;;;;;;5036758;28;20442;-73
2023/06/04 07:35:23;;;;;;;1.48;0.10;;;17.70;98.60;;;;;;5054494;28;20029;-73
2023/06/04 07:37:49;;;;;;;1.95;0.10;;;17.80;98.90;;;;;;5036788;28;20500;-73
2023/06/04 07:40:16;;;;;;;3.10;0.15;;;17.90;99.00;;;;;;5054397;28;20547;-74
2023/06/04 07:42:43;;;;;;;8.20;0.28;;;18.00;97.80;;;;;;5054503;28;20025;-73
2023/06/04 07:45:09;;;;;;;0.80;0.10;;;18.10;96.90;;;;;;5054453;28;20032;-73
2023/06/04 07:47:38;;;;;;;0.98;0.00;;;18.20;97.10;;;;;;5036464;28;20028;-73
2023/06/04 07:50:05;;;;;;;0.90;0.30;;;18.30;96.60;;;;;;5036618;28;20025;-73
2023/06/04 07:52:33;;;;;;;0.70;0.10;;;18.40;96.30;;;;;;5054723;28;20029;-74
2023/06/04 07:55:00;;;;;;;1.63;0.00;;;18.50;95.80;;;;;;5054294;28;20507;-73
2023/06/04 07:57:26;;;;;;;0.50;0.10;;;18.70;94.90;;;;;;5055005;28;20029;-74
2023/06/04 07:59:51;;;;;;;1.65;0.00;;;18.80;94.20;;;;;;5036315;28;20108;-73
2023/06/04 08:02:17;;;;;;;0.20;0.00;;;18.90;93.50;;;;;;5036241;28;20021;-73
2023/06/04 08:04:45;;;;;;;1.30;0.00;;;19.10;92.90;;;;;;5054416;28;20251;-74
2023/06/04 08:07:11;;;;;;;1.55;0.10;;;19.10;93.20;;;;;;5036298;28;20021;-74
2023/06/04 08:09:36;;;;;;;1.55;0.03;;;19.20;92.10;;;;;;5054507;28;20021;-74
2023/06/04 08:12:02;;;;;;;1.98;0.00;;;19.30;91.60;;;;;;5053958;28;20064;-73
2023/06/04 08:14:28;;;;;;;1.88;0.20;;;19.30;91.40;;;;;;5054163;28;20028;-74
2023/06/04 08:16:54;;;;;;;2.22;0.20;;;19.40;91.00;;;;;;5054579;28;20488;-74
2023/06/04 08:19:19;;;;;;;0.30;0.03;;;19.50;90.10;;;;;;5053837;28;20102;-74
2023/06/04 08:21:45;;;;;;;2.42;0.00;;;19.50;90.60;;;;;;5035978;28;20018;-74
2023/06/04 08:24:11;;;;;;;0.77;0.00;;;19.50;90.80;;;;;;5053841;28;20435;-73
2023/06/04 08:26:37;;;;;;;1.73;0.00;;;19.70;90.60;;;;;;5035736;28;20428;-74
2023/06/04 08:29:05;;;;;;;3.92;0.00;;;19.80;90.30;;;;;;5053565;28;20021;-74
2023/06/04 08:31:32;;;;;;;0.03;0.00;;;19.80;90.10;;;;;;5053731;28;20554;-74
2023/06/04 08:33:58;;;;;;;1.27;0.00;;;20.00;91.00;;;;;;5053652;28;20021;-74
2023/06/04 08:36:23;;;;;;;0.50;0.00;;;20.20;89.30;;;;;;5053633;28;20032;-74
2023/06/04 08:38:50;;;;;;;0.47;0.00;;;20.90;89.20;;;;;;5053366;28;20017;-76
2023/06/04 08:41:26;;;;;;;2.92;0.00;;;20.70;87.10;;;;;;5054276;28;20032;-75
2023/06/04 08:43:55;;;;;;;0.90;0.08;;;20.80;85.80;;;;;;5035823;28;20481;-75
2023/06/04 08:46:22;;;;;;;0.15;0.00;;;20.90;83.00;;;;;;5053662;28;20021;-74
2023/06/04 08:48:49;;;;;;;0.57;0.08;;;21.10;83.50;;;;;;5035660;28;20025;-74
2023/06/04 08:51:15;;;;;;;1.00;0.00;;;21.20;82.80;;;;;;5054179;28;20017;-74
2023/06/04 08:53:42;;;;;;;0.22;0.00;;;21.40;82.00;;;;;;5053284;28;20495;-74
2023/06/04 08:56:08;;;;;;;1.55;0.00;;;21.50;81.20;;;;;;5053497;28;20532;-74
2023/06/04 08:58:35;;;;;;;0.38;0.00;;;21.60;81.00;;;;;;5035226;28;20064;-74
2023/06/04 09:01:02;;;;;;;1.00;0.00;;;21.80;78.20;;;;;;5053279;28;20013;-75
2023/06/04 09:03:32;;;;;;;0.47;0.00;;;21.70;78.60;;;;;;5053457;28;20393;-74
2023/06/04 09:05:59;;;;;;;3.15;0.00;;;21.80;78.00;;;;;;5035268;28;20052;-74
2023/06/04 09:08:26;;;;;;;0.10;0.10;;;21.90;76.20;;;;;;5053179;28;20031;-75
2023/06/04 09:10:54;;;;;;;0.65;0.00;;;21.80;76.90;;;;;;5053270;28;20395;-74
2023/06/04 09:13:23;;;;;;;0.57;0.00;;;21.90;77.40;;;;;;5053272;28;20025;-74
2023/06/04 09:16:01;;;;;;;5.07;0.00;;;22.00;75.00;;;;;;5053179;28;20020;-75
2023/06/04 09:18:27;;;;;;;1.10;0.10;;;22.00;73.50;;;;;;5035198;28;20027;-74
2023/06/04 09:21:07;;;;;;;0.15;0.00;;;22.10;75.60;;;;;;5053148;28;20544;-74
2023/06/04 09:23:47;;;;;;;1.85;0.20;;;22.30;74.90;;;;;;5053833;28;20032;-74
2023/06/04 09:26:13;;;;;;;4.47;0.63;;;22.40;71.80;;;;;;5053133;28;20020;-74
2023/06/04 09:28:42;;;;;;;1.52;0.22;;;22.50;72.70;;;;;;5052919;28;20039;-74
2023/06/04 09:31:10;;;;;;;1.58;0.00;;;22.60;70.80;;;;;;5035047;28;20044;-74
2023/06/04 09:33:47;;;;;;;1.50;0.00;;;23.50;71.40;;;;;;5035264;28;20048;-74
2023/06/04 09:36:12;;;;;;;2.40;0.05;;;22.90;69.00;;;;;;5053011;28;20055;-74
2023/06/04 09:38:38;;;;;;;2.40;0.00;;;22.90;67.60;;;;;;5035055;28;20484;-74
2023/06/04 09:41:05;;;;;;;1.20;0.00;;;22.90;69.30;;;;;;5034413;28;20063;-74
2023/06/04 09:43:32;;;;;;;0.10;0.00;;;22.90;68.40;;;;;;5052114;28;20029;-74
2023/06/04 09:46:12;;;;;;;2.60;0.10;;;23.00;70.20;;;;;;5055584;28;20013;-75
2023/06/04 09:48:38;;;;;;;3.22;0.00;;;23.10;68.30;;;;;;5056030;28;20021;-74
2023/06/04 09:51:11;;;;;;;3.03;0.08;;;23.30;66.40;;;;;;5038682;28;20027;-74
2023/06/04 09:53:37;;;;;;;0.57;0.00;;;23.30;67.40;;;;;;5056711;28;20025;-74
2023/06/04 09:56:06;;;;;;;1.92;0.10;;;23.30;66.00;;;;;;5056656;28;20013;-74
2023/06/04 09:58:32;;;;;;;0.00;0.00;;;23.50;64.50;;;;;;5056495;28;20377;-74
2023/06/04 10:01:02;;;;;;;0.22;0.10;;;23.50;65.10;;;;;;5056352;28;20091;-74
2023/06/04 10:03:32;;;;;;;0.30;0.00;;;23.70;66.30;;;;;;5038455;28;20025;-74
2023/06/04 10:06:01;;;;;;;0.20;0.00;;;23.60;63.90;;;;;;5056451;28;20021;-74
2023/06/04 10:08:28;;;;;;;1.33;0.10;;;23.50;64.90;;;;;;5056203;28;20025;-74
2023/06/04 10:11:02;;;;;;;1.10;0.08;;;23.60;65.50;;;;;;5056218;28;20021;-74
2023/06/04 10:13:30;;;;;;;1.55;0.00;;;23.50;61.80;;;;;;5056415;28;20032;-74
2023/06/04 10:16:00;;;;;;;1.75;0.00;;;23.60;61.80;;;;;;5056029;28;20071;-74
2023/06/04 10:18:28;;;;;;;2.00;0.00;;;23.90;62.60;;;;;;5056292;28;20457;-74
2023/06/04 10:20:58;;;;;;;0.75;0.00;;;23.90;62.90;;;;;;5056011;28;20029;-74
2023/06/04 10:23:24;;;;;;;0.17;0.00;;;23.80;63.60;;;;;;5038245;28;20029;-74
2023/06/04 10:25:53;;;;;;;1.75;0.00;;;23.90;61.70;;;;;;5055870;28;20025;-74
2023/06/04 10:28:20;;;;;;;0.10;0.00;;;24.10;60.40;;;;;;5056334;28;20040;-75
2023/06/04 10:30:50;;;;;;;0.52;0.00;;;24.20;61.00;;;;;;5056026;28;20086;-75
2023/06/04 10:33:20;;;;;;;0.00;0.00;;;24.30;61.80;;;;;;5056301;28;20480;-77
2023/06/04 10:35:46;;;;;;;1.50;0.08;;;24.40;61.00;;;;;;5055875;28;20094;-74
2023/06/04 10:38:14;;;;;;;1.75;0.00;;;24.70;59.10;;;;;;5055725;28;20028;-74
2023/06/04 10:40:42;;;;;;;2.50;0.00;;;24.70;59.30;;;;;;5037963;28;20021;-74
2023/06/04 10:43:13;;;;;;;0.50;0.00;;;24.90;58.90;;;;;;5056238;28;20051;-75
2023/06/04 10:45:39;;;;;;;1.08;0.00;;;25.10;60.40;;;;;;5055841;28;20032;-75
2023/06/04 10:48:07;;;;;;;0.00;0.00;;;25.40;59.60;;;;;;5055772;28;20391;-74
2023/06/04 10:50:34;;;;;;;0.40;0.00;;;25.50;56.70;;;;;;5037466;28;20052;-74
2023/06/04 10:53:05;;;;;;;0.15;0.00;;;25.30;56.00;;;;;;5056011;28;20029;-74
2023/06/04 10:55:31;;;;;;;0.10;0.00;;;25.40;55.20;;;;;;5054708;28;20032;-74
2023/06/04 10:57:59;;;;;;;1.08;0.08;;;25.50;55.00;;;;;;5054754;28;20024;-74
2023/06/04 11:00:39;;;;;;;0.82;0.00;;;25.70;54.90;;;;;;5055272;28;20029;-74
2023/06/04 11:03:07;;;;;;;0.05;0.03;;;25.80;54.40;;;;;;5037291;28;20025;-74
2023/06/04 11:05:44;;;;;;;3.00;0.00;;;25.90;54.20;;;;;;5055215;28;20020;-76
2023/06/04 11:08:12;;;;;;;1.40;0.00;;;26.30;54.20;;;;;;5055079;28;20021;-74
2023/06/04 11:10:40;;;;;;;0.00;0.00;;;26.30;54.80;;;;;;5055131;28;20016;-75
2023/06/04 11:13:07;;;;;;;2.40;0.00;;;26.40;53.10;;;;;;5055028;28;20029;-75
2023/06/04 11:15:48;;;;;;;1.35;0.00;;;26.50;54.50;;;;;;5037377;28;20033;-75
2023/06/04 11:18:20;;;;;;;0.28;0.10;;;26.60;50.20;;;;;;5055186;28;20031;-75
2023/06/04 11:20:48;;;;;;;2.78;0.00;;;26.50;50.10;;;;;;5055573;28;20017;-75
2023/06/04 11:23:15;;;;;;;1.48;0.00;;;26.50;52.60;;;;;;5037129;28;20021;-75
2023/06/04 11:25:43;;;;;;;3.35;0.00;;;26.60;51.80;;;;;;5036994;28;20025;-75
2023/06/04 11:28:21;;;;;;;1.13;0.00;;;26.90;52.70;;;;;;5036823;28;20032;-76
2023/06/04 11:31:03;;;;;;;0.52;0.00;;;26.90;53.20;;;;;;5054662;28;20286;-76
2023/06/04 11:33:29;;;;;;;2.38;0.00;;;27.20;52.70;;;;;;5036964;28;20503;-75
2023/06/04 11:35:55;;;;;;;2.83;0.00;;;27.40;51.80;;;;;;5054854;28;20021;-75
2023/06/04 11:38:21;;;;;;;1.17;0.00;;;27.50;51.50;;;;;;5036652;28;20021;-75
2023/06/04 11:40:58;;;;;;;1.45;0.00;;;27.60;51.60;;;;;;5054737;28;20017;-75
2023/06/04 11:43:23;;;;;;;0.38;0.00;;;27.50;50.40;;;;;;5036714;28;20039;-75
2023/06/04 11:45:50;;;;;;;0.68;0.00;;;27.60;48.80;;;;;;5054495;28;20392;-75
2023/06/04 11:48:16;;;;;;;0.90;0.00;;;27.20;48.80;;;;;;5036708;28;20108;-75
2023/06/04 11:50:42;;;;;;;1.95;0.00;;;27.20;49.20;;;;;;5054465;28;20021;-75
2023/06/04 11:53:07;;;;;;;1.25;0.00;;;27.10;51.80;;;;;;5054502;28;20531;-75
2023/06/04 11:55:33;;;;;;;0.55;0.00;;;27.10;51.80;;;;;;5036483;28;20029;-75
2023/06/04 11:57:59;;;;;;;0.40;0.00;;;27.30;49.50;;;;;;5054264;28;20013;-75
2023/06/04 12:00:25;;;;;;;0.00;0.00;;;27.40;49.40;;;;;;5036111;28;20060;-75
2023/06/04 12:02:52;;;;;;;0.85;0.00;;;27.70;50.40;;;;;;5036263;28;20024;-75
2023/06/04 12:05:19;;;;;;;0.80;0.08;;;27.90;49.10;;;;;;5036220;28;20587;-75
2023/06/04 12:07:47;;;;;;;0.35;0.00;;;28.10;49.70;;;;;;5036089;28;20025;-75
2023/06/04 12:10:13;;;;;;;0.20;0.00;;;28.00;48.50;;;;;;5036086;28;20025;-75
2023/06/04 12:12:42;;;;;;;0.35;0.00;;;28.10;49.20;;;;;;5053908;28;20037;-75
2023/06/04 12:15:09;;;;;;;0.55;0.05;;;28.30;49.00;;;;;;5054040;28;20021;-75
2023/06/04 12:17:36;;;;;;;1.08;0.10;;;28.40;48.10;;;;;;5053858;28;20495;-75
2023/06/04 12:20:01;;;;;;;2.30;0.38;;;28.30;49.70;;;;;;5053891;28;20009;-75
2023/06/04 12:22:27;;;;;;;0.95;0.15;;;28.50;49.80;;;;;;5053926;28;20392;-75
2023/06/04 12:24:55;;;;;;;0.68;0.00;;;28.60;49.90;;;;;;5054508;28;20061;-75
2023/06/04 12:27:22;;;;;;;0.20;0.00;;;28.80;51.80;;;;;;5053826;28;20021;-75
2023/06/04 12:30:00;;;;;;;2.20;0.00;;;28.70;51.60;;;;;;5053454;28;20567;-75
2023/06/04 12:32:27;;;;;;;0.47;0.30;;;28.70;51.90;;;;;;5053553;28;20267;-75
2023/06/04 12:34:53;;;;;;;0.75;0.00;;;28.70;51.80;;;;;;5053560;28;20029;-75
2023/06/04 12:37:20;;;;;;;1.42;0.00;;;29.10;51.40;;;;;;5053694;28;20392;-75
2023/06/04 12:39:45;;;;;;;0.10;0.00;;;29.40;51.60;;;;;;5035553;28;20059;-75
2023/06/04 12:42:11;;;;;;;1.67;0.00;;;29.40;50.00;;;;;;5054095;28;20048;-75
2023/06/04 12:44:39;;;;;;;2.85;0.00;;;29.40;50.70;;;;;;5035816;28;20028;-75
2023/06/04 12:47:05;;;;;;;1.52;0.30;;;29.60;51.50;;;;;;5053440;28;20075;-76